createdAt,value
2022-08-24T05:32:08.273Z,19.10
2022-08-24T05:34:36.470Z,19.40
2022-08-24T05:37:04.845Z,19.90
2022-08-24T05:39:32.786Z,20.80
2022-08-24T05:42:00.958Z,22.30
2022-08-24T05:44:31.117Z,23.70
2022-08-24T05:46:59.622Z,23.90
2022-08-24T05:49:28.155Z,24.30
2022-08-24T05:51:55.463Z,25.10
2022-08-24T05:54:23.488Z,25.70
2022-08-24T05:56:51.514Z,26.40
2022-08-24T05:59:19.733Z,27.20
2022-08-24T06:01:47.324Z,27.70
2022-08-24T06:04:14.944Z,28.10
2022-08-24T06:06:42.840Z,28.50
2022-08-24T06:09:11.748Z,28.50
2022-08-24T06:11:40.289Z,29.10
2022-08-24T06:14:12.903Z,28.90
2022-08-24T06:16:43.388Z,29.00
2022-08-24T06:19:13.220Z,28.50
2022-08-24T06:21:41.199Z,27.50
2022-08-24T06:24:08.815Z,26.70
2022-08-24T06:26:56.744Z,26.50
2022-08-24T06:29:23.967Z,26.40
2022-08-24T06:31:54.633Z,26.00
2022-08-24T06:34:26.263Z,26.00
2022-08-24T06:36:53.955Z,25.60
2022-08-24T06:39:21.214Z,25.50
2022-08-24T06:41:48.436Z,26.00
2022-08-24T06:44:15.781Z,26.60
2022-08-24T06:46:43.070Z,27.10
2022-08-24T06:49:10.311Z,27.50
2022-08-24T06:51:37.547Z,27.80
2022-08-24T06:54:05.140Z,27.70
2022-08-24T06:56:32.347Z,27.80
2022-08-24T06:59:03.190Z,28.00
2022-08-24T07:01:31.263Z,28.00
2022-08-24T07:03:58.539Z,27.50
2022-08-24T07:06:26.667Z,27.20
2022-08-24T07:08:56.423Z,27.50
2022-08-24T07:11:25.020Z,28.00
2022-08-24T07:13:52.417Z,29.20
2022-08-24T07:16:21.272Z,30.20
2022-08-24T07:18:49.831Z,30.30
2022-08-24T07:21:19.714Z,30.90
2022-08-24T07:23:48.841Z,31.90
2022-08-24T07:26:21.279Z,31.90
2022-08-24T07:28:59.434Z,31.50
2022-08-24T07:31:29.995Z,31.10
2022-08-24T07:33:59.315Z,31.20
2022-08-24T07:36:28.366Z,31.70
2022-08-24T07:38:57.307Z,31.80
2022-08-24T07:44:14.870Z,31.70
2022-08-24T07:46:42.287Z,31.70
2022-08-24T07:49:21.493Z,32.60
2022-08-24T07:51:58.724Z,32.10
2022-08-24T07:54:28.675Z,32.80
2022-08-24T07:56:56.376Z,32.30
2022-08-24T07:59:23.715Z,32.00
2022-08-24T08:01:51.438Z,32.50
2022-08-24T08:04:22.015Z,32.30
2022-08-24T08:06:49.376Z,32.80
2022-08-24T08:09:18.151Z,33.20
2022-08-24T08:11:45.393Z,33.90
2022-08-24T08:14:14.830Z,34.30
2022-08-24T08:16:42.380Z,34.80
2022-08-24T08:19:10.727Z,35.10
2022-08-24T08:22:09.087Z,35.80
2022-08-24T08:24:39.791Z,36.60
2022-08-24T08:27:07.074Z,36.40
2022-08-24T08:29:35.476Z,36.90
2022-08-24T08:32:03.100Z,37.30
2022-08-24T08:34:31.498Z,36.50
2022-08-24T08:37:00.116Z,35.80
2022-08-24T08:39:27.885Z,35.80
2022-08-24T08:42:22.066Z,36.00
2022-08-24T08:45:14.722Z,36.30
2022-08-24T08:50:55.897Z,35.10
2022-08-24T08:53:57.888Z,35.30
2022-08-24T08:56:40.880Z,35.70
2022-08-24T09:02:17.703Z,36.20
2022-08-24T09:05:23.949Z,36.10
2022-08-24T09:08:10.792Z,36.00
2022-08-24T09:14:00.442Z,35.60
2022-08-24T09:16:56.217Z,34.80
2022-08-24T09:19:54.096Z,34.30
2022-08-24T09:22:22.346Z,33.50
2022-08-24T09:28:00.366Z,33.70
2022-08-24T09:30:38.800Z,34.30
2022-08-24T09:33:42.803Z,34.70
2022-08-24T09:36:32.778Z,34.90
2022-08-24T09:39:26.988Z,34.50
2022-08-24T09:42:27.039Z,34.90
2022-08-24T09:45:25.348Z,35.10
2022-08-24T09:48:27.882Z,34.10
2022-08-24T09:54:36.050Z,32.80
2022-08-24T09:57:44.100Z,33.30
2022-08-24T10:00:24.875Z,34.00
2022-08-24T10:03:36.178Z,34.40
2022-08-24T10:06:44.985Z,34.30
2022-08-24T10:09:40.213Z,34.90
2022-08-24T10:12:35.705Z,34.80
2022-08-24T10:15:09.251Z,34.90
2022-08-24T10:18:07.108Z,34.40
2022-08-24T10:21:08.717Z,34.00
2022-08-24T10:24:15.747Z,34.60
2022-08-24T10:27:08.740Z,33.60
2022-08-24T10:33:03.593Z,33.10
2022-08-24T10:36:10.716Z,34.20
2022-08-24T10:39:36.991Z,35.00
2022-08-24T10:42:53.941Z,34.80
2022-08-24T10:46:02.957Z,34.20
2022-08-24T10:48:47.686Z,34.20
2022-08-24T10:51:46.327Z,34.90
2022-08-24T10:54:13.892Z,33.20
2022-08-24T10:57:10.305Z,33.30
2022-08-24T10:59:58.853Z,33.00
2022-08-24T11:02:33.145Z,32.20
2022-08-24T11:05:05.944Z,32.30
2022-08-24T11:07:34.662Z,32.90
2022-08-24T11:10:06.655Z,32.80
2022-08-24T11:12:39.418Z,33.10
2022-08-24T11:15:26.329Z,32.90
2022-08-24T11:17:57.012Z,32.80
2022-08-24T11:20:29.510Z,32.40
2022-08-24T11:25:38.404Z,32.70
2022-08-24T11:28:32.165Z,32.80
2022-08-24T11:31:00.817Z,32.00
2022-08-24T11:33:46.356Z,31.30
2022-08-24T11:36:23.522Z,32.30
2022-08-24T11:39:27.733Z,32.60
2022-08-24T11:42:34.789Z,32.10
2022-08-24T11:45:12.488Z,32.10
2022-08-24T11:53:28.009Z,33.20
2022-08-24T11:56:25.755Z,32.80
2022-08-24T11:59:04.742Z,32.30
2022-08-24T12:01:44.845Z,31.80
2022-08-24T12:04:52.099Z,31.20
2022-08-24T12:07:44.600Z,31.20
2022-08-24T12:10:46.537Z,30.80
2022-08-24T12:13:43.085Z,31.00
2022-08-24T12:16:28.935Z,30.80
2022-08-24T12:19:03.267Z,30.80
2022-08-24T12:21:37.821Z,30.00
2022-08-24T12:24:13.142Z,29.60
2022-08-24T12:26:46.021Z,29.60
2022-08-24T12:29:38.608Z,30.00
2022-08-24T12:32:18.964Z,30.50
2022-08-24T12:34:58.576Z,30.50
2022-08-24T12:37:32.821Z,30.40
2022-08-24T12:40:25.979Z,30.20
2022-08-24T12:43:06.118Z,30.10
2022-08-24T12:45:33.557Z,30.10
2022-08-24T12:53:54.393Z,30.50
2022-08-24T12:56:52.128Z,30.10
2022-08-24T12:59:44.003Z,30.30
2022-08-24T13:07:40.502Z,30.20
2022-08-24T13:10:16.500Z,30.10
2022-08-24T13:15:46.824Z,30.30
2022-08-24T13:23:29.639Z,30.30
2022-08-24T13:26:17.799Z,30.50
2022-08-24T13:28:48.556Z,30.40
2022-08-24T13:31:27.131Z,30.30
2022-08-24T13:37:10.727Z,30.20
2022-08-24T13:39:51.385Z,29.80
2022-08-24T13:42:31.208Z,29.80
2022-08-24T13:45:21.377Z,29.80
2022-08-24T13:51:13.948Z,29.70
2022-08-24T13:54:18.845Z,29.70
2022-08-24T14:00:08.110Z,29.90
2022-08-24T14:03:14.384Z,29.90
2022-08-24T14:06:20.593Z,29.60
2022-08-24T14:09:22.928Z,29.90
2022-08-24T14:12:20.518Z,30.00
2022-08-24T14:15:07.002Z,30.00
2022-08-24T14:17:54.678Z,29.90
2022-08-24T14:23:25.507Z,29.90
2022-08-24T14:26:33.111Z,30.10
2022-08-24T14:34:57.757Z,30.00
2022-08-24T14:37:56.766Z,29.70
2022-08-24T14:40:50.016Z,29.70
2022-08-24T14:46:23.292Z,29.50
2022-08-24T14:49:07.857Z,29.70
2022-08-24T14:52:07.995Z,29.70
2022-08-24T14:58:23.783Z,29.80
2022-08-24T15:04:06.663Z,29.60
2022-08-24T15:06:48.245Z,29.50
2022-08-24T15:12:13.566Z,29.60
2022-08-24T15:14:48.290Z,29.30
2022-08-24T15:17:26.015Z,29.20
2022-08-24T15:20:06.360Z,29.30
2022-08-24T15:22:46.591Z,29.40
2022-08-24T15:25:30.096Z,29.50
2022-08-24T15:28:10.873Z,29.50
2022-08-24T15:30:41.370Z,29.40
2022-08-24T15:33:17.205Z,29.30
2022-08-24T15:35:50.302Z,29.20
2022-08-24T15:38:21.998Z,29.30
2022-08-24T15:41:02.041Z,29.40
2022-08-24T15:43:29.552Z,29.30
2022-08-24T15:45:57.249Z,29.30
2022-08-24T15:48:26.053Z,29.30
2022-08-24T15:50:55.978Z,29.30
2022-08-24T15:56:58.138Z,29.30
